createdAt,value
2016-05-19T00:00:06.929Z,14.15
2016-05-19T00:01:06.932Z,14.1
2016-05-19T00:02:06.965Z,14.08
2016-05-19T00:03:06.968Z,14.08
2016-05-19T00:04:07.003Z,14.05
2016-05-19T00:05:07.020Z,13.97
2016-05-19T00:06:07.039Z,14
2016-05-19T00:07:07.041Z,14.03
2016-05-19T00:08:07.981Z,13.99
2016-05-19T00:09:07.078Z,14.04
2016-05-19T00:10:07.097Z,14.05
2016-05-19T00:11:07.131Z,14.03
2016-05-19T00:12:07.149Z,13.97
2016-05-19T00:13:07.167Z,13.89
2016-05-19T00:14:07.186Z,13.96
2016-05-19T00:15:07.204Z,13.85
2016-05-19T00:16:07.253Z,13.79
2016-05-19T00:17:07.241Z,13.81
2016-05-19T00:18:07.275Z,13.81
2016-05-19T00:19:07.277Z,13.87
2016-05-19T00:20:06.983Z,13.87
2016-05-19T00:21:07.157Z,13.87
2016-05-19T00:22:07.332Z,13.87
2016-05-19T00:23:07.366Z,13.86
2016-05-19T00:24:07.384Z,13.83
2016-05-19T00:25:07.388Z,13.78
2016-05-19T00:26:07.421Z,13.7
2016-05-19T00:27:07.439Z,13.74
2016-05-19T00:28:07.442Z,13.72
2016-05-19T00:29:07.460Z,13.75
2016-05-19T00:30:07.229Z,13.77
2016-05-19T00:31:07.215Z,13.75
2016-05-19T00:32:07.515Z,13.71
2016-05-19T00:33:07.548Z,13.75
2016-05-19T00:34:07.395Z,13.67
2016-05-19T00:35:07.414Z,13.71
2016-05-19T00:36:07.292Z,13.75
2016-05-19T00:37:07.607Z,13.62
2016-05-19T00:38:07.484Z,13.71
2016-05-19T00:39:07.675Z,13.65
2016-05-19T00:40:07.678Z,13.65
2016-05-19T00:41:07.695Z,13.71
2016-05-19T00:42:07.730Z,13.72
2016-05-19T00:43:07.717Z,13.67
2016-05-19T00:44:07.735Z,13.65
2016-05-19T00:45:07.753Z,13.59
2016-05-19T00:46:07.787Z,13.57
2016-05-19T00:47:07.821Z,13.54
2016-05-19T00:48:07.824Z,13.6
2016-05-19T00:49:07.827Z,13.54
2016-05-19T00:50:07.704Z,13.56
2016-05-19T00:51:07.582Z,13.6
2016-05-19T00:52:07.913Z,13.5
2016-05-19T00:53:08.524Z,13.68
2016-05-19T00:54:07.933Z,13.44
2016-05-19T00:55:07.936Z,13.46
2016-05-19T00:56:07.971Z,13.49
2016-05-19T00:57:07.974Z,13.46
2016-05-19T00:58:07.991Z,13.39
2016-05-19T00:59:08.009Z,13.31
2016-05-19T01:00:08.044Z,13.3
2016-05-19T01:01:08.077Z,13.23
2016-05-19T01:02:08.079Z,13.31
2016-05-19T01:03:08.114Z,13.31
2016-05-19T01:04:07.976Z,13.15
2016-05-19T01:05:08.135Z,13.19
2016-05-19T01:06:08.013Z,13.15
2016-05-19T01:07:08.156Z,13.2
2016-05-19T01:08:08.206Z,13.13
2016-05-19T01:09:08.209Z,13.13
2016-05-19T01:10:08.226Z,13.13
2016-05-19T01:11:08.245Z,13.16
2016-05-19T01:12:08.278Z,13.13
2016-05-19T01:13:08.281Z,13.09
2016-05-19T01:14:08.300Z,13.13
2016-05-19T01:15:08.162Z,13.12
2016-05-19T01:16:08.336Z,13.12
2016-05-19T01:17:08.214Z,13.09
2016-05-19T01:18:08.389Z,13.11
2016-05-19T01:19:08.392Z,13.12
2016-05-19T01:20:08.253Z,13.22
2016-05-19T01:21:08.427Z,13.12
2016-05-19T01:22:08.291Z,13.13
2016-05-19T01:23:08.309Z,13.19
2016-05-19T01:24:08.327Z,13.2
2016-05-19T01:25:08.501Z,13.18
2016-05-19T01:26:08.519Z,13.22
2016-05-19T01:27:08.554Z,13.27
2016-05-19T01:28:08.557Z,13.25
2016-05-19T01:29:08.590Z,13.18
2016-05-19T01:30:08.609Z,13.31
2016-05-19T01:31:08.455Z,13.3
2016-05-19T01:32:08.473Z,13.35
2016-05-19T01:33:08.648Z,13.23
2016-05-19T01:34:08.682Z,13.28
2016-05-19T01:35:08.668Z,13.3
2016-05-19T01:36:08.703Z,13.28
2016-05-19T01:37:08.706Z,13.27
2016-05-19T01:38:08.567Z,13.44
2016-05-19T01:39:08.759Z,13.41
2016-05-19T01:40:08.760Z,13.38
2016-05-19T01:41:08.794Z,13.44
2016-05-19T01:42:08.797Z,13.38
2016-05-19T01:43:08.659Z,13.39
2016-05-19T01:44:08.834Z,13.35
2016-05-19T01:45:08.853Z,13.39
2016-05-19T01:46:08.870Z,13.37
2016-05-19T01:47:08.889Z,13.42
2016-05-19T01:48:08.922Z,13.42
2016-05-19T01:49:08.941Z,13.35
2016-05-19T01:50:08.959Z,13.42
2016-05-19T01:51:08.978Z,13.5
2016-05-19T01:52:08.996Z,13.47
2016-05-19T01:53:09.030Z,13.47
2016-05-19T01:54:09.033Z,13.42
2016-05-19T01:55:09.051Z,13.49
2016-05-19T01:56:09.069Z,13.41
2016-05-19T01:57:09.088Z,13.44
2016-05-19T01:58:09.105Z,13.39
2016-05-19T01:59:09.124Z,13.42
2016-05-19T02:00:09.127Z,13.38
2016-05-19T02:01:09.176Z,13.39
2016-05-19T02:02:08.882Z,13.39
2016-05-19T02:03:09.212Z,13.3
2016-05-19T02:04:09.215Z,13.39
2016-05-19T02:05:09.250Z,13.25
2016-05-19T02:06:09.237Z,13.35
2016-05-19T02:07:09.270Z,13.27
2016-05-19T02:08:09.132Z,13.27
2016-05-19T02:09:09.151Z,13.3
2016-05-19T02:10:09.310Z,13.3
2016-05-19T02:11:09.345Z,13.33
2016-05-19T02:12:09.222Z,13.28
2016-05-19T02:13:09.381Z,13.28
2016-05-19T02:14:09.243Z,13.28
2016-05-19T02:15:09.433Z,13.3
2016-05-19T02:16:09.436Z,13.27
2016-05-19T02:17:09.453Z,13.27
2016-05-19T02:18:09.472Z,13.33
2016-05-19T02:19:09.194Z,13.3
2016-05-19T02:20:09.508Z,13.22
2016-05-19T02:21:09.527Z,13.12
2016-05-19T02:22:09.530Z,13.27
2016-05-19T02:23:09.422Z,13.19
2016-05-19T02:24:09.613Z,13.18
2016-05-19T02:25:09.452Z,13.2
2016-05-19T02:26:09.439Z,13.18
2016-05-19T02:27:09.644Z,13.13
2016-05-19T02:28:09.663Z,13.15
2016-05-19T02:29:09.682Z,13.13
2016-05-19T02:30:09.700Z,13.09
2016-05-19T02:31:09.702Z,13.09
2016-05-19T02:32:09.721Z,13.11
2016-05-19T02:33:09.738Z,13.09
2016-05-19T02:34:09.757Z,13.09
2016-05-19T02:35:09.776Z,13.05
2016-05-19T02:36:09.841Z,13.03
2016-05-19T02:37:09.812Z,13.01
2016-05-19T02:38:09.752Z,13.04
2016-05-19T02:39:09.974Z,13.05
2016-05-19T02:40:09.711Z,13.08
2016-05-19T02:41:09.929Z,13.09
2016-05-19T02:42:09.991Z,13.16
2016-05-19T02:43:10.068Z,13.11
2016-05-19T02:44:10.131Z,13.15
2016-05-19T02:45:10.036Z,13.13
2016-05-19T02:46:10.047Z,13.19
2016-05-19T02:47:09.926Z,13.23
2016-05-19T02:48:10.286Z,13.11
2016-05-19T02:49:10.321Z,13.23
2016-05-19T02:50:10.355Z,13.2
2016-05-19T02:51:10.366Z,13.18
2016-05-19T02:52:10.390Z,13.33
2016-05-19T02:53:10.899Z,13.23
2016-05-19T02:54:10.344Z,13.19
2016-05-19T02:55:10.462Z,13.22
2016-05-19T02:56:10.468Z,13.3
2016-05-19T02:57:10.395Z,13.25
2016-05-19T02:58:10.508Z,13.33
2016-05-19T02:59:10.545Z,13.37
2016-05-19T03:00:10.581Z,13.33
2016-05-19T03:01:10.601Z,13.28
2016-05-19T03:02:10.604Z,13.31
2016-05-19T03:03:10.622Z,13.44
2016-05-19T03:04:10.657Z,13.39
2016-05-19T03:05:10.676Z,13.35
2016-05-19T03:06:10.711Z,13.41
2016-05-19T03:07:10.714Z,13.41
2016-05-19T03:08:10.935Z,13.42
2016-05-19T03:09:10.736Z,13.52
2016-05-19T03:10:10.754Z,13.44
2016-05-19T03:11:10.772Z,13.44
2016-05-19T03:12:10.791Z,13.39
2016-05-19T03:13:10.825Z,13.47
2016-05-19T03:14:10.812Z,13.42
2016-05-19T03:15:10.862Z,13.38
2016-05-19T03:16:10.880Z,13.39
2016-05-19T03:17:10.727Z,13.42
2016-05-19T03:18:10.761Z,13.39
2016-05-19T03:19:10.950Z,13.38
2016-05-19T03:20:10.953Z,13.38
2016-05-19T03:21:10.956Z,13.44
2016-05-19T03:22:10.833Z,13.33
2016-05-19T03:23:11.493Z,13.37
2016-05-19T03:24:10.838Z,13.38
2016-05-19T03:25:11.029Z,13.38
2016-05-19T03:26:11.048Z,13.44
2016-05-19T03:27:11.065Z,13.3
2016-05-19T03:28:10.928Z,13.27
2016-05-19T03:29:10.790Z,13.28
2016-05-19T03:30:11.121Z,13.22
2016-05-19T03:31:10.982Z,13.3
2016-05-19T03:32:11.189Z,13.3
2016-05-19T03:33:11.176Z,13.19
2016-05-19T03:34:11.195Z,13.19
2016-05-19T03:35:11.073Z,13.2
2016-05-19T03:36:11.231Z,13.28
2016-05-19T03:37:11.312Z,13.2
2016-05-19T03:38:11.423Z,13.31
2016-05-19T03:39:11.144Z,13.22
2016-05-19T03:40:11.289Z,13.31
2016-05-19T03:41:11.369Z,13.19
2016-05-19T03:42:11.231Z,13.25
2016-05-19T03:43:11.421Z,13.18
2016-05-19T03:44:11.377Z,13.15
2016-05-19T03:45:11.442Z,13.16
2016-05-19T03:46:11.460Z,13.16
2016-05-19T03:47:11.432Z,13.18
2016-05-19T03:48:11.294Z,13.16
2016-05-19T03:49:11.203Z,13.16
2016-05-19T03:50:11.175Z,13.11
2016-05-19T03:51:11.521Z,13.23
2016-05-19T03:52:11.368Z,13.12
2016-05-19T03:53:11.402Z,13.12
2016-05-19T03:54:11.577Z,13.09
2016-05-19T03:55:11.422Z,13.11
2016-05-19T03:56:11.441Z,13.25
2016-05-19T03:57:11.443Z,13.19
2016-05-19T03:58:11.649Z,13.08
2016-05-19T03:59:11.496Z,13.09
2016-05-19T04:00:11.529Z,13.16
2016-05-19T04:01:11.688Z,13.16
2016-05-19T04:02:11.706Z,13.22
2016-05-19T04:03:11.568Z,13.13
2016-05-19T04:04:11.728Z,13.13
2016-05-19T04:05:11.762Z,13.15
2016-05-19T04:06:11.764Z,13.19
2016-05-19T04:07:11.783Z,13.22
2016-05-19T04:08:12.004Z,13.2
2016-05-19T04:09:11.835Z,13.27
2016-05-19T04:10:11.854Z,13.13
2016-05-19T04:11:11.872Z,13.16
2016-05-19T04:12:11.875Z,13.13
2016-05-19T04:13:11.909Z,13.13
2016-05-19T04:14:11.911Z,13.12
2016-05-19T04:15:11.929Z,13.15
2016-05-19T04:16:11.807Z,13.08
2016-05-19T04:17:11.997Z,13.12
2016-05-19T04:18:11.828Z,13.12
2016-05-19T04:19:12.002Z,13.18
2016-05-19T04:20:11.880Z,13.22
2016-05-19T04:21:12.054Z,13.16
2016-05-19T04:22:12.073Z,13.23
2016-05-19T04:23:12.091Z,13.2
2016-05-19T04:24:12.094Z,13.2
2016-05-19T04:25:11.972Z,13.18
2016-05-19T04:26:12.146Z,13.28
2016-05-19T04:27:12.165Z,13.2
2016-05-19T04:28:12.183Z,13.3
2016-05-19T04:29:12.202Z,13.3
2016-05-19T04:30:12.220Z,13.19
2016-05-19T04:31:12.238Z,13.33
2016-05-19T04:32:12.257Z,13.28
2016-05-19T04:33:12.259Z,13.3
2016-05-19T04:34:12.277Z,13.37
2016-05-19T04:35:12.295Z,13.38
2016-05-19T04:36:12.329Z,13.39
2016-05-19T04:37:12.364Z,13.52
2016-05-19T04:38:12.194Z,13.44
2016-05-19T04:39:12.354Z,13.44
2016-05-19T04:40:12.372Z,13.56
2016-05-19T04:41:12.420Z,13.62
2016-05-19T04:42:12.424Z,13.56
2016-05-19T04:43:12.442Z,13.62
2016-05-19T04:44:12.476Z,13.56
2016-05-19T04:45:12.478Z,13.53
2016-05-19T04:46:12.513Z,13.67
2016-05-19T04:47:12.530Z,13.52
2016-05-19T04:48:12.550Z,13.65
2016-05-19T04:49:12.552Z,13.57
2016-05-19T04:50:12.602Z,13.67
2016-05-19T04:51:12.292Z,13.67
2016-05-19T04:52:12.607Z,13.68
2016-05-19T04:53:12.532Z,13.7
2016-05-19T04:54:12.627Z,13.74
2016-05-19T04:55:12.663Z,13.74
2016-05-19T04:56:12.696Z,13.71
2016-05-19T04:57:12.713Z,13.75
2016-05-19T04:58:12.608Z,13.71
2016-05-19T04:59:12.735Z,13.72
2016-05-19T05:00:12.769Z,13.72
2016-05-19T05:01:12.772Z,13.74
2016-05-19T05:02:12.821Z,13.71
2016-05-19T05:03:12.824Z,13.7
2016-05-19T05:04:12.842Z,13.75
2016-05-19T05:05:12.860Z,13.75
2016-05-19T05:06:12.848Z,13.72
2016-05-19T05:07:12.882Z,13.79
2016-05-19T05:08:12.618Z,13.72
2016-05-19T05:09:12.778Z,13.85
2016-05-19T05:10:12.937Z,13.9
2016-05-19T05:11:12.970Z,13.79
2016-05-19T05:12:12.989Z,13.87
2016-05-19T05:13:13.007Z,13.87
2016-05-19T05:14:13.026Z,13.93
2016-05-19T05:15:13.028Z,13.96
2016-05-19T05:16:12.906Z,14
2016-05-19T05:17:13.081Z,13.9
2016-05-19T05:18:13.067Z,13.97
2016-05-19T05:19:13.102Z,13.97
2016-05-19T05:20:13.120Z,14.07
2016-05-19T05:21:13.138Z,14
2016-05-19T05:22:13.156Z,14
2016-05-19T05:23:13.049Z,14.07
2016-05-19T05:24:13.240Z,14.05
2016-05-19T05:25:13.228Z,14.08
2016-05-19T05:26:13.089Z,14.07
2016-05-19T05:27:13.263Z,14.15
2016-05-19T05:28:13.282Z,14.17
2016-05-19T05:29:13.332Z,14.18
2016-05-19T05:30:13.335Z,14.22
2016-05-19T05:31:13.337Z,14.2
2016-05-19T05:32:13.402Z,14.26
2016-05-19T05:33:13.405Z,14.3
2016-05-19T05:34:13.407Z,14.25
2016-05-19T05:35:13.410Z,14.33
2016-05-19T05:36:13.429Z,14.33
2016-05-19T05:37:13.446Z,14.35
2016-05-19T05:38:13.387Z,14.23
2016-05-19T05:39:13.531Z,14.32
2016-05-19T05:40:13.518Z,14.4
2016-05-19T05:41:13.567Z,14.41
2016-05-19T05:42:13.617Z,14.47
2016-05-19T05:43:13.604Z,14.5
2016-05-19T05:44:13.638Z,14.44
2016-05-19T05:45:13.625Z,14.47
2016-05-19T05:46:13.643Z,14.5
2016-05-19T05:47:13.677Z,14.55
2016-05-19T05:48:13.508Z,14.55
2016-05-19T05:49:13.697Z,14.55
2016-05-19T05:50:13.686Z,14.62
2016-05-19T05:51:13.563Z,14.68
2016-05-19T05:52:13.737Z,14.69
2016-05-19T05:53:15.022Z,14.77
2016-05-19T05:54:13.602Z,14.78
2016-05-19T05:55:13.777Z,14.78
2016-05-19T05:56:13.811Z,14.85
2016-05-19T05:57:13.688Z,14.69
2016-05-19T05:58:13.863Z,14.78
2016-05-19T05:59:13.865Z,14.77
2016-05-19T06:00:13.727Z,14.88
2016-05-19T06:01:13.918Z,14.91
2016-05-19T06:02:13.936Z,14.94
2016-05-19T06:03:13.924Z,14.89
2016-05-19T06:04:13.957Z,14.99
2016-05-19T06:05:13.976Z,14.94
2016-05-19T06:06:13.994Z,15.06
2016-05-19T06:07:13.996Z,15
2016-05-19T06:08:14.327Z,15.03
2016-05-19T06:09:14.064Z,15.06
2016-05-19T06:10:14.051Z,15.11
2016-05-19T06:11:14.085Z,15.09
2016-05-19T06:12:13.962Z,15.11
2016-05-19T06:13:14.137Z,15.11
2016-05-19T06:14:14.156Z,15.15
2016-05-19T06:15:14.174Z,15.15
2016-05-19T06:16:14.193Z,15.22
2016-05-19T06:17:14.070Z,15.24
2016-05-19T06:18:14.229Z,15.27
2016-05-19T06:19:14.247Z,15.35
2016-05-19T06:20:13.969Z,15.35
2016-05-19T06:21:14.283Z,15.4
2016-05-19T06:22:14.303Z,15.43
2016-05-19T06:23:14.195Z,15.4
2016-05-19T06:24:14.355Z,15.46
2016-05-19T06:25:14.373Z,15.52
2016-05-19T06:26:14.236Z,15.62
2016-05-19T06:27:14.410Z,15.61
2016-05-19T06:28:14.412Z,15.64
2016-05-19T06:29:14.446Z,15.65
2016-05-19T06:30:14.464Z,15.64
2016-05-19T06:31:14.466Z,15.72
2016-05-19T06:32:14.502Z,15.76
2016-05-19T06:33:14.535Z,15.77
2016-05-19T06:34:14.538Z,15.79
2016-05-19T06:35:14.557Z,15.76
2016-05-19T06:36:14.434Z,15.95
2016-05-19T06:37:14.608Z,16.08
2016-05-19T06:38:14.470Z,16.05
2016-05-19T06:39:14.707Z,16.2
2016-05-19T06:40:14.648Z,16.21
2016-05-19T06:41:14.541Z,16.21
2016-05-19T06:42:14.590Z,16.32
2016-05-19T06:43:14.749Z,16.35
2016-05-19T06:44:14.784Z,16.42
2016-05-19T06:45:14.771Z,16.53
2016-05-19T06:46:14.836Z,16.6
2016-05-19T06:47:14.792Z,16.61
2016-05-19T06:48:14.826Z,16.56
2016-05-19T06:49:14.859Z,16.6
2016-05-19T06:50:14.861Z,16.46
2016-05-19T06:51:14.770Z,16.64
2016-05-19T06:52:14.914Z,16.78
2016-05-19T06:53:15.151Z,16.9
2016-05-19T06:54:14.983Z,16.86
2016-05-19T06:55:14.969Z,17.22
2016-05-19T06:56:14.831Z,17.33
2016-05-19T06:57:15.006Z,17.52
2016-05-19T06:58:15.040Z,17.56
2016-05-19T06:59:15.041Z,17.68
2016-05-19T07:00:15.061Z,17.65
2016-05-19T07:01:14.938Z,17.72
2016-05-19T07:02:15.097Z,17.76
2016-05-19T07:03:15.115Z,17.9
2016-05-19T07:04:15.134Z,18.07
2016-05-19T07:05:15.168Z,18.18
2016-05-19T07:06:15.030Z,18.07
2016-05-19T07:07:15.204Z,18.1
2016-05-19T07:08:15.082Z,18.18
2016-05-19T07:09:15.241Z,18.28
2016-05-19T07:10:15.290Z,18.2
2016-05-19T07:11:15.278Z,18.25
2016-05-19T07:12:15.171Z,18.23
2016-05-19T07:13:15.158Z,18.22
2016-05-19T07:14:15.192Z,18.28
2016-05-19T07:15:15.382Z,18.19
2016-05-19T07:16:15.400Z,18.23
2016-05-19T07:17:15.419Z,18.11
2016-05-19T07:18:15.437Z,18.15
2016-05-19T07:19:15.471Z,18.25
2016-05-19T07:20:15.473Z,18.15
2016-05-19T07:21:15.195Z,18.07
2016-05-19T07:22:15.370Z,17.92
2016-05-19T07:23:15.622Z,17.8
2016-05-19T07:24:15.609Z,17.83
2016-05-19T07:25:15.456Z,17.71
2016-05-19T07:26:15.459Z,17.52
2016-05-19T07:27:15.602Z,17.71
2016-05-19T07:28:15.480Z,17.92
2016-05-19T07:29:15.717Z,18.05
2016-05-19T07:30:15.564Z,18.33
2016-05-19T07:31:15.738Z,18.43
2016-05-19T07:32:16.616Z,18.28
2016-05-19T07:33:15.633Z,18.31
2016-05-19T07:34:15.840Z,18.18
2016-05-19T07:35:15.843Z,17.95
2016-05-19T07:36:15.861Z,17.92
2016-05-19T07:37:15.707Z,17.82
2016-05-19T07:38:16.022Z,17.79
2016-05-19T07:39:15.884Z,17.65
2016-05-19T07:40:15.746Z,17.44
2016-05-19T07:41:15.905Z,17.44
2016-05-19T07:42:15.939Z,17.6
2016-05-19T07:43:15.957Z,17.72
2016-05-19T07:44:15.992Z,17.92
2016-05-19T07:45:16.009Z,18.05
2016-05-19T07:46:16.044Z,18.19
2016-05-19T07:47:16.046Z,18.28
2016-05-19T07:48:16.080Z,18.38
2016-05-19T07:49:15.959Z,18.55
2016-05-19T07:50:16.102Z,18.6
2016-05-19T07:51:16.136Z,18.66
2016-05-19T07:52:16.154Z,18.78
2016-05-19T07:53:16.062Z,18.83
2016-05-19T07:54:16.190Z,18.93
2016-05-19T07:55:16.208Z,19.08
2016-05-19T07:56:16.242Z,19.18
2016-05-19T07:57:16.261Z,19.26
2016-05-19T07:58:16.139Z,19.08
2016-05-19T07:59:16.297Z,18.8
2016-05-19T08:00:16.347Z,18.65
2016-05-19T08:01:16.350Z,18.65
2016-05-19T08:02:16.368Z,18.68
2016-05-19T08:03:16.402Z,18.66
2016-05-19T08:04:16.435Z,18.68
2016-05-19T08:05:16.438Z,18.68
2016-05-19T08:06:16.457Z,18.66
2016-05-19T08:07:16.491Z,18.75
2016-05-19T08:08:16.494Z,18.77
2016-05-19T08:09:16.528Z,18.71
2016-05-19T08:10:16.546Z,18.37
2016-05-19T08:11:16.565Z,18.25
2016-05-19T08:12:16.582Z,17.92
2016-05-19T08:13:16.601Z,17.78
2016-05-19T08:14:16.463Z,17.78
2016-05-19T08:15:16.637Z,17.67
2016-05-19T08:16:16.687Z,17.72
2016-05-19T08:17:16.706Z,17.74
2016-05-19T08:18:16.568Z,17.7
2016-05-19T08:19:16.726Z,17.7
2016-05-19T08:20:16.760Z,17.87
2016-05-19T08:21:16.669Z,17.94
2016-05-19T08:22:16.844Z,18.08
2016-05-19T08:23:16.768Z,18.19
2016-05-19T08:24:16.911Z,18.08
2016-05-19T08:25:16.977Z,18.15
2016-05-19T08:26:16.979Z,18.29
2016-05-19T08:27:16.966Z,18.31
2016-05-19T08:28:16.985Z,18.33
2016-05-19T08:29:16.988Z,18.41
2016-05-19T08:30:17.006Z,18.22
2016-05-19T08:31:17.008Z,18.35
2016-05-19T08:32:16.902Z,18.33
2016-05-19T08:33:17.061Z,18.18
2016-05-19T08:34:17.063Z,18.2
2016-05-19T08:35:17.083Z,18.2
2016-05-19T08:36:17.085Z,17.95
2016-05-19T08:37:17.103Z,17.85
2016-05-19T08:38:17.387Z,17.71
2016-05-19T08:39:17.186Z,17.67
2016-05-19T08:40:17.173Z,17.65
2016-05-19T08:41:17.066Z,17.72
2016-05-19T08:42:17.210Z,17.87
2016-05-19T08:43:17.244Z,17.86
2016-05-19T08:44:17.263Z,17.83
2016-05-19T08:45:17.281Z,17.82
2016-05-19T08:46:17.315Z,17.89
2016-05-19T08:47:17.332Z,17.83
2016-05-19T08:48:17.351Z,17.95
2016-05-19T08:49:17.384Z,18.05
2016-05-19T08:50:17.075Z,18.2
2016-05-19T08:51:17.406Z,18.34
2016-05-19T08:52:17.425Z,18.29
2016-05-19T08:53:18.333Z,18.4
2016-05-19T08:54:17.742Z,18.43
2016-05-19T08:55:17.604Z,18.49
2016-05-19T08:56:17.529Z,18.37
2016-05-19T08:57:17.531Z,18.37
2016-05-19T08:58:17.409Z,18.31
2016-05-19T08:59:17.411Z,18.41
2016-05-19T09:00:17.446Z,18.41
2016-05-19T09:01:17.652Z,18.37
2016-05-19T09:02:17.639Z,18.52
2016-05-19T09:03:17.642Z,18.38
2016-05-19T09:04:17.675Z,18.25
2016-05-19T09:05:17.710Z,18.18
2016-05-19T09:06:17.556Z,18.22
2016-05-19T09:07:17.730Z,18.22
2016-05-19T09:08:17.826Z,18.22
2016-05-19T09:09:17.829Z,18.15
2016-05-19T09:10:17.832Z,18.18
2016-05-19T09:11:17.522Z,18.18
2016-05-19T09:12:17.868Z,18.19
2016-05-19T09:13:17.716Z,17.95
2016-05-19T09:14:17.952Z,17.9
2016-05-19T09:15:17.954Z,17.92
2016-05-19T09:16:17.943Z,17.92
2016-05-19T09:17:17.992Z,17.86
2016-05-19T09:18:17.838Z,17.85
2016-05-19T09:19:17.903Z,17.86
2016-05-19T09:20:18.063Z,17.72
2016-05-19T09:21:18.081Z,17.7
2016-05-19T09:22:18.114Z,17.8
2016-05-19T09:23:17.976Z,18.01
2016-05-19T09:24:18.276Z,18.15
2016-05-19T09:25:18.123Z,18.33
2016-05-19T09:26:18.141Z,18.34
2016-05-19T09:27:18.159Z,18.45
2016-05-19T09:28:18.177Z,18.47
2016-05-19T09:29:18.211Z,18.5
2016-05-19T09:30:18.073Z,18.4
2016-05-19T09:31:18.248Z,18.22
2016-05-19T09:32:18.283Z,18.23
2016-05-19T09:33:18.316Z,18.2
2016-05-19T09:34:18.319Z,18.16
2016-05-19T09:35:18.352Z,18.13
2016-05-19T09:36:18.199Z,18.2
2016-05-19T09:37:18.388Z,18.31
2016-05-19T09:38:18.408Z,18.11
2016-05-19T09:39:18.286Z,18.04
2016-05-19T09:40:18.444Z,18.18
2016-05-19T09:41:18.494Z,18.34
2016-05-19T09:42:18.480Z,18.31
2016-05-19T09:43:18.327Z,18.26
2016-05-19T09:44:18.549Z,18.26
2016-05-19T09:45:18.395Z,18.28
2016-05-19T09:46:18.585Z,18.2
2016-05-19T09:47:18.588Z,18.07
2016-05-19T09:48:18.622Z,18.18
2016-05-19T09:49:18.656Z,18.19
2016-05-19T09:50:18.659Z,18.16
2016-05-19T09:51:18.521Z,18.22
2016-05-19T09:52:18.695Z,18.26
2016-05-19T09:53:19.120Z,18.11
2016-05-19T09:54:18.592Z,18.26
2016-05-19T09:55:18.765Z,18.11
2016-05-19T09:56:18.784Z,18.16
2016-05-19T09:57:18.803Z,18.19
2016-05-19T09:58:18.836Z,18.25
2016-05-19T09:59:18.855Z,18.25
2016-05-19T10:00:18.779Z,18.19
2016-05-19T10:01:18.781Z,18.2
2016-05-19T10:02:18.941Z,18.22
2016-05-19T10:03:18.928Z,18.25
2016-05-19T10:04:18.962Z,18.4
2016-05-19T10:05:18.980Z,18.55
2016-05-19T10:06:19.045Z,18.59
2016-05-19T10:07:19.048Z,18.56
2016-05-19T10:08:18.926Z,18.71
2016-05-19T10:09:19.491Z,18.73
2016-05-19T10:10:19.150Z,18.71
2016-05-19T10:11:18.996Z,18.73
2016-05-19T10:12:19.218Z,18.8
2016-05-19T10:13:18.986Z,18.96
2016-05-19T10:14:19.239Z,18.92
2016-05-19T10:15:19.241Z,18.78
2016-05-19T10:16:19.229Z,18.68
2016-05-19T10:17:19.279Z,18.7
2016-05-19T10:18:19.140Z,18.75
2016-05-19T10:19:19.174Z,18.78
2016-05-19T10:20:19.302Z,18.68
2016-05-19T10:21:19.336Z,18.8
2016-05-19T10:22:19.338Z,18.93
2016-05-19T10:23:19.373Z,18.96
2016-05-19T10:24:19.390Z,18.65
2016-05-19T10:25:19.409Z,18.59
2016-05-19T10:26:19.428Z,18.53
2016-05-19T10:27:19.446Z,18.65
2016-05-19T10:28:19.386Z,18.81
2016-05-19T10:29:19.498Z,18.93
2016-05-19T10:30:19.517Z,18.98
2016-05-19T10:31:19.394Z,19.04
2016-05-19T10:32:19.412Z,19
2016-05-19T10:33:19.587Z,19.12
2016-05-19T10:34:19.621Z,19.34
2016-05-19T10:35:19.592Z,19.4
2016-05-19T10:36:19.658Z,19.36
2016-05-19T10:37:19.675Z,19.34
2016-05-19T10:38:19.694Z,19.37
2016-05-19T10:39:19.713Z,19.3
2016-05-19T10:40:19.575Z,19.36
2016-05-19T10:41:19.764Z,19.55
2016-05-19T10:42:19.783Z,19.66
2016-05-19T10:43:19.802Z,19.79
2016-05-19T10:44:19.804Z,19.92
2016-05-19T10:45:19.854Z,20
2016-05-19T10:46:19.872Z,20.19
2016-05-19T10:47:19.891Z,20.09
2016-05-19T10:48:19.908Z,19.92
2016-05-19T10:49:19.927Z,19.86
2016-05-19T10:50:19.960Z,19.96
2016-05-19T10:51:19.807Z,20
2016-05-19T10:52:19.998Z,19.99
2016-05-19T10:53:20.391Z,19.92
2016-05-19T10:54:20.096Z,19.95
2016-05-19T10:55:20.099Z,20
2016-05-19T10:56:20.102Z,19.99
2016-05-19T10:57:20.104Z,20
2016-05-19T10:58:20.169Z,20.21
2016-05-19T10:59:20.173Z,20.32
2016-05-19T11:00:20.176Z,20.43
2016-05-19T11:01:20.209Z,20.36
2016-05-19T11:02:20.259Z,20.29
2016-05-19T11:03:20.292Z,20.26
2016-05-19T11:04:20.311Z,20.19
2016-05-19T11:05:20.328Z,20.29
2016-05-19T11:06:20.363Z,20.31
2016-05-19T11:07:20.350Z,20.36
2016-05-19T11:08:20.228Z,20.58
2016-05-19T11:09:20.247Z,20.58
2016-05-19T11:10:20.405Z,20.67
2016-05-19T11:11:20.407Z,20.74
2016-05-19T11:12:20.285Z,20.6
2016-05-19T11:13:20.461Z,20.18
2016-05-19T11:14:20.478Z,20.18
2016-05-19T11:15:20.513Z,20.19
2016-05-19T11:16:20.530Z,20.19
2016-05-19T11:17:20.408Z,20.29
2016-05-19T11:18:20.582Z,20.31
2016-05-19T11:19:20.445Z,20.1
2016-05-19T11:20:20.635Z,20
2016-05-19T11:21:20.513Z,20.03
2016-05-19T11:22:20.687Z,20.16
2016-05-19T11:23:20.534Z,20.25
2016-05-19T11:24:21.005Z,20.36
2016-05-19T11:25:20.743Z,20.39
2016-05-19T11:26:20.792Z,20.5
2016-05-19T11:27:20.795Z,20.43
2016-05-19T11:28:20.673Z,20.31
2016-05-19T11:29:20.832Z,20.16
2016-05-19T11:30:20.725Z,20.02
2016-05-19T11:31:20.728Z,19.79
2016-05-19T11:32:20.886Z,19.66
2016-05-19T11:33:20.764Z,19.92
2016-05-19T11:34:20.938Z,19.99
2016-05-19T11:35:20.956Z,20.18
2016-05-19T11:36:20.975Z,20.19
2016-05-19T11:37:21.025Z,20.25
2016-05-19T11:38:21.027Z,20.22
2016-05-19T11:39:21.061Z,20.25
2016-05-19T11:40:21.063Z,20.28
2016-05-19T11:41:21.097Z,20.43
2016-05-19T11:42:21.133Z,20.44
2016-05-19T11:43:21.150Z,20.47
2016-05-19T11:44:21.199Z,20.62
2016-05-19T11:45:21.202Z,20.6
2016-05-19T11:46:21.221Z,20.56
2016-05-19T11:47:21.293Z,20.51
2016-05-19T11:48:21.319Z,20.51
2016-05-19T11:49:21.503Z,20.51
2016-05-19T11:50:21.469Z,20.56
2016-05-19T11:51:21.573Z,20.34
2016-05-19T11:52:21.656Z,20.14
2016-05-19T11:53:21.704Z,20.26
2016-05-19T11:54:22.112Z,20.4
2016-05-19T11:55:21.738Z,20.25
2016-05-19T11:56:21.771Z,20.21
2016-05-19T11:57:21.780Z,20.09
2016-05-19T11:58:21.788Z,20.03
2016-05-19T11:59:21.827Z,20.16
2016-05-19T12:00:21.852Z,20.14
2016-05-19T12:01:21.563Z,20.18
2016-05-19T12:02:21.865Z,20.18
2016-05-19T12:03:21.884Z,20.16
2016-05-19T12:04:21.607Z,20.22
2016-05-19T12:05:21.956Z,20.14
2016-05-19T12:06:21.992Z,20.18
2016-05-19T12:07:22.011Z,20.02
2016-05-19T12:08:22.015Z,20
2016-05-19T12:09:22.189Z,20.1
2016-05-19T12:10:22.067Z,20.1
2016-05-19T12:11:22.103Z,20.21
2016-05-19T12:12:22.106Z,20.22
2016-05-19T12:13:23.624Z,20.24
2016-05-19T12:14:22.159Z,20.31
2016-05-19T12:15:22.412Z,20.5
2016-05-19T12:16:22.041Z,20.62
2016-05-19T12:17:22.214Z,20.72
2016-05-19T12:18:22.280Z,20.81
2016-05-19T12:19:22.267Z,20.81
2016-05-19T12:20:22.285Z,20.92
2016-05-19T12:21:22.318Z,20.85
2016-05-19T12:22:22.321Z,20.72
2016-05-19T12:23:22.355Z,20.78
2016-05-19T12:24:22.546Z,20.78
2016-05-19T12:25:22.251Z,20.74
2016-05-19T12:26:22.270Z,20.81
2016-05-19T12:27:22.445Z,20.88
2016-05-19T12:28:25.198Z,20.84
2016-05-19T12:29:22.481Z,20.88
2016-05-19T12:30:22.515Z,20.99
2016-05-19T12:31:22.549Z,20.82
2016-05-19T12:32:22.568Z,20.85
2016-05-19T12:33:22.632Z,20.75
2016-05-19T12:34:22.635Z,20.8
2016-05-19T12:35:22.637Z,20.77
2016-05-19T12:36:22.640Z,20.63
2016-05-19T12:37:22.675Z,20.56
2016-05-19T12:38:22.678Z,20.4
2016-05-19T12:39:23.320Z,20.39
2016-05-19T12:40:22.745Z,20.41
2016-05-19T12:41:22.811Z,20.44
2016-05-19T12:42:22.845Z,20.39
2016-05-19T12:43:26.988Z,20.36
2016-05-19T12:44:22.881Z,20.26
2016-05-19T12:45:22.914Z,20.31
2016-05-19T12:46:22.902Z,20.41
2016-05-19T12:47:22.905Z,20.65
2016-05-19T12:48:26.172Z,20.63
2016-05-19T12:49:22.941Z,20.67
2016-05-19T12:50:22.960Z,20.78
2016-05-19T12:51:22.978Z,20.97
2016-05-19T12:52:23.027Z,21.12
2016-05-19T12:53:23.046Z,21.22
2016-05-19T12:54:23.064Z,21.27
2016-05-19T12:55:23.082Z,21.37
2016-05-19T12:56:23.101Z,21.36